LFBD/BOD METAR and TAF weather

Enter ICAO airport designator
Station Type Date Time Source
LFBD METAR 2020/08/06 00:30 UTC NOAA

LFBD 060030Z AUTO 03004KT CAVOK 19/11 Q1015 NOSIG


Station Type Date Time Source
LFBD Decoded METAR 2020/08/06 00:30 UTC NOAA

Bordeaux / Merignac, France (LFBD) 44-50N 000-42W 61M
Aug 05, 2020 - 08:30 PM EDT / 2020.08.06 0030 UTC
Wind: from the NNE (030 degrees) at 5 MPH (4 KT):0
Visibility: greater than 7 mile(s):0
Temperature: 66 F (19 C)
Dew Point: 51 F (11 C)
Relative Humidity: 59%
Pressure (altimeter): 29.97 in. Hg (1015 hPa)
ob: LFBD 060030Z AUTO 03004KT CAVOK 19/11 Q1015 NOSIG
cycle: 0

Station Type Date Time Source
LFBD TAF 2020/08/05 18:21 UTC NOAA

TAF TAF LFBD 051700Z 0518/0624 02005KT CAVOK TX38/0615Z TN16/0605Z

Example: see airport list